createdAt,value
2022-10-05T00:01:30.701Z,95035.28
2022-10-05T00:04:17.230Z,95027.22
2022-10-05T00:06:47.558Z,95016.56
2022-10-05T00:09:23.438Z,95035.03
2022-10-05T00:11:51.177Z,95037.38
2022-10-05T00:14:21.435Z,95028.19
2022-10-05T00:16:48.683Z,95026.25
2022-10-05T00:19:21.523Z,95036.72
2022-10-05T00:21:48.408Z,95031.63
2022-10-05T00:24:19.446Z,95026.28
2022-10-05T00:26:46.415Z,95022.78
2022-10-05T00:29:22.223Z,95026.97
2022-10-05T00:31:50.445Z,95018.13
2022-10-05T00:34:17.928Z,95019.88
2022-10-05T00:36:45.626Z,95026.81
2022-10-05T00:39:12.802Z,95018.59
2022-10-05T00:41:48.500Z,95020.91
2022-10-05T00:44:41.895Z,95020.25
2022-10-05T00:47:36.439Z,95022.34
2022-10-05T00:50:30.031Z,95029.72
2022-10-05T00:53:33.139Z,95035.03
2022-10-05T00:56:18.739Z,95037.56
2022-10-05T00:59:11.218Z,95037.97
2022-10-05T01:01:52.983Z,95037.34
2022-10-05T01:04:38.352Z,95035.13
2022-10-05T01:07:34.380Z,95040.03
2022-10-05T01:10:15.972Z,95042.44
2022-10-05T01:12:54.435Z,95047.28
2022-10-05T01:15:51.748Z,95046.22
2022-10-05T01:18:44.365Z,95040.59
2022-10-05T01:21:21.874Z,95044.97
2022-10-05T01:24:10.329Z,95044.53
2022-10-05T01:26:58.493Z,95046.31
2022-10-05T01:30:03.388Z,95047.44
2022-10-05T01:32:59.634Z,95055.50
2022-10-05T01:35:41.391Z,95062.03
2022-10-05T01:38:22.902Z,95066.63
2022-10-05T01:40:57.607Z,95071.00
2022-10-05T01:43:42.287Z,95071.78
2022-10-05T01:46:23.389Z,95078.94
2022-10-05T01:49:16.375Z,95082.97
2022-10-05T01:52:17.551Z,95075.38
2022-10-05T01:54:50.187Z,95095.13
2022-10-05T01:57:48.548Z,95093.34
2022-10-05T02:00:18.220Z,95092.13
2022-10-05T02:02:52.618Z,95094.56
2022-10-05T02:05:29.222Z,95095.78
2022-10-05T02:08:15.739Z,95094.03
2022-10-05T02:10:51.843Z,95102.59
2022-10-05T02:13:39.799Z,95092.41
2022-10-05T02:16:16.601Z,95089.19
2022-10-05T02:19:02.357Z,95093.31
2022-10-05T02:21:31.519Z,95105.91
2022-10-05T02:24:03.454Z,95102.44
2022-10-05T02:26:33.354Z,95105.44
2022-10-05T02:29:04.619Z,95103.19
2022-10-05T02:31:43.254Z,95104.25
2022-10-05T02:34:36.230Z,95107.00
2022-10-05T02:37:15.667Z,95097.72
2022-10-05T02:40:23.668Z,95106.31
2022-10-05T02:43:21.091Z,95094.88
2022-10-05T02:45:54.018Z,95092.41
2022-10-05T02:48:26.426Z,95102.59
2022-10-05T02:51:24.191Z,95095.53
2022-10-05T02:54:07.936Z,95091.63
2022-10-05T02:56:52.367Z,95088.66
2022-10-05T02:59:40.599Z,95097.06
2022-10-05T03:02:09.815Z,95096.06
2022-10-05T03:04:39.309Z,95104.31
2022-10-05T03:07:13.563Z,95090.75
2022-10-05T03:10:04.494Z,95102.66
2022-10-05T03:12:53.955Z,95109.22
2022-10-05T03:15:57.267Z,95095.97
2022-10-05T03:18:30.918Z,95111.28
2022-10-05T03:21:24.465Z,95113.94
2022-10-05T03:24:31.361Z,95118.22
2022-10-05T03:27:27.123Z,95109.53
2022-10-05T03:29:53.641Z,95111.59
2022-10-05T03:32:51.772Z,95114.22
2022-10-05T03:35:30.012Z,95118.56
2022-10-05T03:38:02.802Z,95126.56
2022-10-05T03:40:55.932Z,95126.25
2022-10-05T03:43:54.691Z,95133.38
2022-10-05T03:46:21.253Z,95142.00
2022-10-05T03:48:50.511Z,95148.22
2022-10-05T03:51:42.791Z,95151.66
2022-10-05T03:54:23.539Z,95148.38
2022-10-05T03:56:55.779Z,95152.09
2022-10-05T03:59:22.318Z,95163.25
2022-10-05T04:01:56.927Z,95161.19
2022-10-05T04:04:33.248Z,95164.50
2022-10-05T04:07:01.608Z,95166.88
2022-10-05T04:09:36.688Z,95175.47
2022-10-05T04:12:24.970Z,95170.75
2022-10-05T04:14:59.438Z,95173.00
2022-10-05T04:17:35.022Z,95175.00
2022-10-05T04:20:14.951Z,95173.53
2022-10-05T04:22:52.102Z,95174.72
2022-10-05T04:25:25.271Z,95169.66
2022-10-05T04:28:22.721Z,95174.97
2022-10-05T04:30:52.179Z,95182.38
2022-10-05T04:33:18.925Z,95178.44
2022-10-05T04:36:22.523Z,95186.91
2022-10-05T04:39:07.643Z,95186.81
2022-10-05T04:42:09.147Z,95194.56
2022-10-05T04:44:55.883Z,95193.09
2022-10-05T04:47:35.448Z,95200.06
2022-10-05T04:50:15.808Z,95203.09
2022-10-05T04:53:10.210Z,95210.97
2022-10-05T04:55:42.444Z,95216.13
2022-10-05T04:58:24.937Z,95212.75
2022-10-05T05:01:06.732Z,95216.78
2022-10-05T05:03:50.052Z,95210.41
2022-10-05T05:06:22.274Z,95205.47
2022-10-05T05:09:22.241Z,95204.44
2022-10-05T05:12:11.586Z,95199.78
2022-10-05T05:14:55.350Z,95202.16
2022-10-05T05:17:37.123Z,95201.38
2022-10-05T05:20:06.485Z,95196.97
2022-10-05T05:23:01.045Z,95203.28
2022-10-05T05:25:56.649Z,95211.63
2022-10-05T05:28:46.228Z,95211.06
2022-10-05T05:31:33.344Z,95206.59
2022-10-05T05:34:12.071Z,95212.63
2022-10-05T05:36:58.000Z,95212.13
2022-10-05T05:39:45.412Z,95207.03
2022-10-05T05:42:46.101Z,95212.75
2022-10-05T05:45:39.178Z,95217.81
2022-10-05T05:48:19.421Z,95224.53
2022-10-05T05:50:58.344Z,95220.50
2022-10-05T05:53:35.323Z,95232.81
2022-10-05T05:56:06.864Z,95230.44
2022-10-05T05:58:41.665Z,95230.34
2022-10-05T06:01:33.221Z,95235.16
2022-10-05T06:04:11.030Z,95236.28
2022-10-05T06:06:42.503Z,95231.59
2022-10-05T06:09:40.548Z,95232.03
2022-10-05T06:12:14.686Z,95223.88
2022-10-05T06:14:44.967Z,95240.63
2022-10-05T06:17:18.415Z,95244.66
2022-10-05T06:19:47.353Z,95247.47
2022-10-05T06:22:30.498Z,95252.38
2022-10-05T06:25:12.404Z,95255.00
2022-10-05T06:27:57.943Z,95261.22
2022-10-05T06:30:30.968Z,95260.09
2022-10-05T06:33:06.481Z,95271.66
2022-10-05T06:35:39.079Z,95283.41
2022-10-05T06:38:27.447Z,95279.81
2022-10-05T06:41:01.801Z,95286.53
2022-10-05T06:43:31.017Z,95280.34
2022-10-05T06:46:19.279Z,95287.59
2022-10-05T06:48:53.197Z,95293.03
2022-10-05T06:51:34.639Z,95300.41
2022-10-05T06:54:04.714Z,95312.97
2022-10-05T06:56:43.941Z,95305.09
2022-10-05T06:59:18.553Z,95311.72
2022-10-05T07:02:06.179Z,95312.03
2022-10-05T07:04:36.713Z,95313.53
2022-10-05T07:07:38.268Z,95298.84
2022-10-05T07:10:22.699Z,95295.19
2022-10-05T07:13:29.876Z,95296.88
2022-10-05T07:16:26.411Z,95284.41
2022-10-05T07:19:02.155Z,95293.25
2022-10-05T07:21:43.843Z,95295.94
2022-10-05T07:24:32.382Z,95293.81
2022-10-05T07:27:17.249Z,95297.00
2022-10-05T07:29:55.682Z,95291.66
2022-10-05T07:32:47.061Z,95285.63
2022-10-05T07:36:17.082Z,95287.50
2022-10-05T07:39:23.485Z,95285.53
2022-10-05T07:41:59.886Z,95284.16
2022-10-05T07:44:53.178Z,95286.28
2022-10-05T07:47:27.364Z,95295.47
2022-10-05T07:49:58.107Z,95290.28
2022-10-05T07:52:36.746Z,95301.75
2022-10-05T07:55:47.268Z,95283.84
2022-10-05T07:58:19.211Z,95287.97
2022-10-05T08:00:59.634Z,95293.25
2022-10-05T08:03:58.612Z,95295.16
2022-10-05T08:06:48.532Z,95312.41
2022-10-05T08:09:36.212Z,95302.16
2022-10-05T08:12:27.457Z,95305.75
2022-10-05T08:14:58.974Z,95315.22
2022-10-05T08:17:51.308Z,95309.50
2022-10-05T08:20:26.710Z,95318.97
2022-10-05T08:23:12.327Z,95316.50
2022-10-05T08:25:53.556Z,95314.59
2022-10-05T08:28:26.137Z,95310.69
2022-10-05T08:31:11.157Z,95319.09
2022-10-05T08:34:02.718Z,95319.88
2022-10-05T08:36:53.693Z,95322.22
2022-10-05T08:39:26.400Z,95318.84
2022-10-05T08:42:11.288Z,95312.63
2022-10-05T08:44:56.686Z,95312.34
2022-10-05T08:47:49.147Z,95311.91
2022-10-05T08:50:16.158Z,95304.28
2022-10-05T08:53:07.783Z,95305.53
2022-10-05T08:55:46.583Z,95304.50
2022-10-05T08:58:26.095Z,95300.44
2022-10-05T09:01:12.158Z,95311.28
2022-10-05T09:04:17.592Z,95292.53
2022-10-05T09:07:08.538Z,95302.78
2022-10-05T09:10:13.172Z,95310.72
2022-10-05T09:13:16.566Z,95310.22
2022-10-05T09:16:09.227Z,95318.69
2022-10-05T09:19:04.279Z,95318.44
2022-10-05T09:21:42.153Z,95316.34
2022-10-05T09:24:14.357Z,95317.31
2022-10-05T09:26:40.876Z,95313.41
2022-10-05T09:29:26.261Z,95315.41
2022-10-05T09:32:20.260Z,95311.22
2022-10-05T09:34:47.782Z,95309.34
2022-10-05T09:37:56.219Z,95313.72
2022-10-05T09:40:41.825Z,95321.59
2022-10-05T09:43:26.446Z,95320.44
2022-10-05T09:46:01.963Z,95317.25
2022-10-05T09:48:34.482Z,95311.63
2022-10-05T09:51:06.903Z,95316.84
2022-10-05T09:53:47.163Z,95308.97
2022-10-05T09:56:22.911Z,95316.63
2022-10-05T09:59:15.384Z,95312.81
2022-10-05T10:02:20.915Z,95309.94
2022-10-05T10:05:04.157Z,95303.50
2022-10-05T10:07:50.243Z,95308.66
2022-10-05T10:10:22.557Z,95311.47
2022-10-05T10:13:13.945Z,95313.59
2022-10-05T10:16:04.533Z,95306.13
2022-10-05T10:19:00.113Z,95315.41
2022-10-05T10:21:57.376Z,95315.63
2022-10-05T10:24:35.486Z,95315.22
2022-10-05T10:27:16.597Z,95307.31
2022-10-05T10:29:43.107Z,95314.34
2022-10-05T10:32:12.666Z,95315.41
2022-10-05T10:34:54.108Z,95303.22
2022-10-05T10:37:57.851Z,95301.28
2022-10-05T10:40:30.233Z,95299.91
2022-10-05T10:43:05.682Z,95296.81
2022-10-05T10:46:23.889Z,95298.97
2022-10-05T10:49:29.405Z,95282.69
2022-10-05T10:52:22.811Z,95285.81
2022-10-05T10:55:10.863Z,95270.44
2022-10-05T10:57:56.029Z,95275.00
2022-10-05T11:00:55.763Z,95281.34
2022-10-05T11:03:40.895Z,95285.53
2022-10-05T11:06:22.809Z,95278.34
2022-10-05T11:09:15.058Z,95264.09
2022-10-05T11:12:17.822Z,95263.06
2022-10-05T11:15:02.415Z,95252.97
2022-10-05T11:17:48.203Z,95249.16
2022-10-05T11:20:35.641Z,95244.22
2022-10-05T11:23:39.193Z,95242.09
2022-10-05T11:26:44.500Z,95248.59
2022-10-05T11:29:20.060Z,95246.75
2022-10-05T11:32:08.455Z,95233.22
2022-10-05T11:35:06.127Z,95244.06
2022-10-05T11:37:58.989Z,95237.53
2022-10-05T11:41:02.181Z,95236.69
2022-10-05T11:43:37.712Z,95236.31
2022-10-05T11:46:52.496Z,95232.38
2022-10-05T11:49:32.766Z,95235.34
2022-10-05T11:51:59.292Z,95234.53
2022-10-05T11:55:05.920Z,95230.03
2022-10-05T11:57:43.150Z,95225.78
2022-10-05T12:00:12.926Z,95208.03
2022-10-05T12:02:56.009Z,95202.00
2022-10-05T12:05:49.225Z,95206.91
2022-10-05T12:08:49.973Z,95204.88
2022-10-05T12:12:01.760Z,95208.06
2022-10-05T12:14:37.981Z,95203.69
2022-10-05T12:17:17.011Z,95210.81
2022-10-05T12:19:55.561Z,95211.34
2022-10-05T12:22:45.822Z,95208.06
2022-10-05T12:25:19.158Z,95204.53
2022-10-05T12:27:49.384Z,95210.69
2022-10-05T12:30:33.106Z,95214.91
2022-10-05T12:33:02.989Z,95224.84
2022-10-05T12:35:48.965Z,95219.28
2022-10-05T12:38:32.890Z,95215.66
2022-10-05T12:41:10.883Z,95225.81
2022-10-05T12:44:14.067Z,95221.75
2022-10-05T12:46:59.323Z,95209.16
2022-10-05T12:49:47.830Z,95215.78
2022-10-05T12:52:33.149Z,95220.06
2022-10-05T12:55:18.154Z,95226.53
2022-10-05T12:58:03.361Z,95222.53
2022-10-05T13:00:31.977Z,95211.59
2022-10-05T13:03:23.391Z,95214.25
2022-10-05T13:06:08.512Z,95206.53
2022-10-05T13:08:58.976Z,95215.09
2022-10-05T13:11:36.162Z,95218.38
2022-10-05T13:14:16.556Z,95208.50
2022-10-05T13:17:10.210Z,95208.25
2022-10-05T13:19:44.641Z,95197.38
2022-10-05T13:22:30.771Z,95194.72
2022-10-05T13:25:13.660Z,95195.81
2022-10-05T13:27:55.339Z,95188.31
2022-10-05T13:30:22.273Z,95188.19
2022-10-05T13:33:20.760Z,95181.91
2022-10-05T13:36:01.567Z,95180.41
2022-10-05T13:38:48.965Z,95186.47
2022-10-05T13:41:50.216Z,95175.13
2022-10-05T13:44:34.216Z,95170.50
2022-10-05T13:47:00.939Z,95169.22
2022-10-05T13:49:59.767Z,95171.06
2022-10-05T13:52:44.894Z,95172.97
2022-10-05T13:55:14.179Z,95171.66
2022-10-05T13:57:57.508Z,95162.47
2022-10-05T14:00:27.124Z,95158.44
2022-10-05T14:02:56.713Z,95171.09
2022-10-05T14:05:24.573Z,95167.66
2022-10-05T14:07:52.940Z,95158.81
2022-10-05T14:10:49.209Z,95160.41
2022-10-05T14:13:24.090Z,95154.72
2022-10-05T14:16:12.587Z,95164.94
2022-10-05T14:18:51.779Z,95165.19
2022-10-05T14:21:23.943Z,95159.22
2022-10-05T14:23:51.708Z,95166.91
2022-10-05T14:26:19.895Z,95162.34
2022-10-05T14:29:03.043Z,95164.63
2022-10-05T14:31:37.430Z,95165.25
2022-10-05T14:34:29.319Z,95160.41
2022-10-05T14:37:29.894Z,95164.84
2022-10-05T14:40:03.466Z,95165.31
2022-10-05T14:42:46.966Z,95162.97
2022-10-05T14:45:20.050Z,95160.97
2022-10-05T14:47:52.381Z,95162.38
2022-10-05T14:50:26.115Z,95168.56
2022-10-05T14:53:21.353Z,95158.75
2022-10-05T14:56:03.102Z,95161.63
2022-10-05T14:58:57.776Z,95162.09
2022-10-05T15:01:35.166Z,95165.81
2022-10-05T15:04:26.378Z,95163.00
2022-10-05T15:06:55.513Z,95171.16
2022-10-05T15:09:52.324Z,95164.38
2022-10-05T15:12:27.877Z,95165.56
2022-10-05T15:15:02.917Z,95171.72
2022-10-05T15:17:52.592Z,95169.25
2022-10-05T15:20:29.303Z,95175.78
2022-10-05T15:23:05.319Z,95178.88
2022-10-05T15:25:40.534Z,95183.44
2022-10-05T15:28:48.348Z,95181.31
2022-10-05T15:31:34.035Z,95182.66
2022-10-05T15:34:13.444Z,95178.66
2022-10-05T15:36:48.007Z,95191.81
2022-10-05T15:39:46.798Z,95191.03
2022-10-05T15:42:20.243Z,95192.94
2022-10-05T15:45:10.806Z,95191.31
2022-10-05T15:48:00.095Z,95193.91
2022-10-05T15:50:32.367Z,95200.00
2022-10-05T15:52:59.203Z,95200.47
2022-10-05T15:55:47.270Z,95197.97
2022-10-05T15:58:49.770Z,95213.59
2022-10-05T16:01:20.103Z,95214.72
2022-10-05T16:04:02.304Z,95214.53
2022-10-05T16:06:47.406Z,95224.31
2022-10-05T16:09:19.822Z,95229.09
2022-10-05T16:12:06.642Z,95233.28
2022-10-05T16:14:59.824Z,95238.41
2022-10-05T16:17:40.981Z,95242.31
2022-10-05T16:20:50.092Z,95242.59
2022-10-05T16:23:41.773Z,95247.91
2022-10-05T16:26:42.934Z,95252.38
2022-10-05T16:29:35.518Z,95257.75
2022-10-05T16:32:22.530Z,95267.63
2022-10-05T16:34:57.776Z,95263.00
2022-10-05T16:37:32.209Z,95266.81
2022-10-05T16:40:03.227Z,95274.91
2022-10-05T16:42:50.937Z,95269.38
2022-10-05T16:45:44.985Z,95268.69
2022-10-05T16:48:18.141Z,95278.94
2022-10-05T16:50:59.719Z,95273.81
2022-10-05T16:53:34.205Z,95275.06
2022-10-05T16:56:06.338Z,95278.00
2022-10-05T16:58:56.428Z,95284.19
2022-10-05T17:01:42.249Z,95280.19
2022-10-05T17:04:12.186Z,95285.41
2022-10-05T17:07:07.546Z,95279.94
2022-10-05T17:09:43.304Z,95281.25
2022-10-05T17:12:40.912Z,95286.97
2022-10-05T17:15:31.934Z,95288.19
2022-10-05T17:18:04.327Z,95284.22
2022-10-05T17:20:33.981Z,95285.88
2022-10-05T17:23:31.360Z,95290.28
2022-10-05T17:26:02.380Z,95282.03
2022-10-05T17:28:58.092Z,95288.63
2022-10-05T17:31:28.103Z,95286.66
2022-10-05T17:34:00.507Z,95297.50
2022-10-05T17:36:54.240Z,95288.81
2022-10-05T17:39:48.814Z,95295.19
2022-10-05T17:42:30.272Z,95288.22
2022-10-05T17:45:14.827Z,95298.63
2022-10-05T17:48:03.457Z,95300.66
2022-10-05T17:51:15.042Z,95300.53
2022-10-05T17:54:03.241Z,95307.63
2022-10-05T17:56:31.843Z,95310.59
2022-10-05T17:59:00.153Z,95317.34
2022-10-05T18:01:30.330Z,95320.28
2022-10-05T18:04:12.455Z,95321.31
2022-10-05T18:06:43.114Z,95323.75
2022-10-05T18:09:17.088Z,95326.59
2022-10-05T18:11:48.093Z,95328.06
2022-10-05T18:14:24.925Z,95324.81
2022-10-05T18:16:59.404Z,95337.00
2022-10-05T18:19:31.485Z,95335.41
2022-10-05T18:22:01.331Z,95335.28
2022-10-05T18:24:41.190Z,95337.84
2022-10-05T18:27:48.231Z,95338.53
2022-10-05T18:30:20.900Z,95340.41
2022-10-05T18:33:05.905Z,95334.72
2022-10-05T18:35:51.402Z,95337.00
2022-10-05T18:38:21.870Z,95338.75
2022-10-05T18:40:53.529Z,95334.72
2022-10-05T18:43:43.702Z,95340.19
2022-10-05T18:46:39.487Z,95343.53
2022-10-05T18:49:24.979Z,95337.53
2022-10-05T18:52:20.121Z,95334.69
2022-10-05T18:55:11.723Z,95343.31
2022-10-05T18:58:10.568Z,95344.88
2022-10-05T19:00:58.446Z,95343.94
2022-10-05T19:04:13.168Z,95353.22
2022-10-05T19:06:56.868Z,95351.84
2022-10-05T19:09:42.019Z,95337.25
2022-10-05T19:15:16.787Z,95342.09
2022-10-05T19:18:01.538Z,95349.94
2022-10-05T19:20:41.559Z,95341.34
2022-10-05T19:23:22.383Z,95347.50
2022-10-05T19:25:58.768Z,95349.75
2022-10-05T19:28:37.038Z,95353.91
2022-10-05T19:31:12.355Z,95345.91
2022-10-05T19:34:22.257Z,95351.97
2022-10-05T19:36:54.661Z,95364.66
2022-10-05T19:39:37.356Z,95358.28
2022-10-05T19:42:32.097Z,95365.22
2022-10-05T19:45:28.111Z,95363.00
2022-10-05T19:48:08.529Z,95367.13
2022-10-05T19:50:38.485Z,95371.94
2022-10-05T19:53:17.222Z,95368.50
2022-10-05T19:55:47.180Z,95372.53
2022-10-05T19:58:31.589Z,95373.44
2022-10-05T20:03:53.293Z,95374.75
2022-10-05T20:06:22.657Z,95381.41
2022-10-05T20:08:51.957Z,95377.56
2022-10-05T20:11:23.417Z,95376.34
2022-10-05T20:13:52.990Z,95376.53
2022-10-05T20:16:53.211Z,95375.44
2022-10-05T20:19:50.685Z,95378.56
2022-10-05T20:22:36.598Z,95374.13
2022-10-05T20:25:18.209Z,95375.56
2022-10-05T20:27:51.144Z,95372.28
2022-10-05T20:30:37.965Z,95371.44
2022-10-05T20:33:10.400Z,95371.88
2022-10-05T20:35:36.975Z,95369.81
2022-10-05T20:38:09.743Z,95368.81
2022-10-05T20:40:36.372Z,95374.09
2022-10-05T20:43:06.537Z,95379.56
2022-10-05T20:45:33.106Z,95378.00
2022-10-05T20:47:59.792Z,95381.84
2022-10-05T20:50:27.582Z,95385.41
2022-10-05T20:52:55.986Z,95383.97
2022-10-05T20:55:22.590Z,95382.59
2022-10-05T20:57:49.168Z,95376.88
2022-10-05T21:00:15.830Z,95381.38
2022-10-05T21:02:42.470Z,95379.81
2022-10-05T21:05:12.460Z,95375.13
2022-10-05T21:07:40.994Z,95376.44
2022-10-05T21:10:08.424Z,95371.88
2022-10-05T21:12:35.323Z,95378.00
2022-10-05T21:15:04.735Z,95382.69
2022-10-05T21:17:34.697Z,95373.22
2022-10-05T21:20:01.305Z,95383.97
2022-10-05T21:22:27.933Z,95380.81
2022-10-05T21:24:55.220Z,95385.16
2022-10-05T21:27:21.820Z,95375.66
2022-10-05T21:29:48.426Z,95371.63
2022-10-05T21:32:15.035Z,95385.72
2022-10-05T21:34:41.755Z,95379.78
2022-10-05T21:37:08.824Z,95370.94
2022-10-05T21:39:36.698Z,95377.97
2022-10-05T21:44:54.831Z,95376.09
2022-10-05T21:47:21.425Z,95370.81
2022-10-05T21:49:48.116Z,95382.56
2022-10-05T21:52:14.886Z,95367.13
2022-10-05T21:54:41.523Z,95365.19
2022-10-05T21:57:11.791Z,95366.56
2022-10-05T21:59:38.878Z,95369.19
2022-10-05T22:02:05.547Z,95367.69
2022-10-05T22:04:32.247Z,95358.75
2022-10-05T22:06:59.288Z,95362.41
2022-10-05T22:09:25.982Z,95362.56
2022-10-05T22:11:52.717Z,95372.81
2022-10-05T22:14:19.280Z,95372.84
2022-10-05T22:16:46.022Z,95363.53
2022-10-05T22:19:19.163Z,95356.63
2022-10-05T22:21:45.893Z,95361.81
2022-10-05T22:24:12.627Z,95363.00
2022-10-05T22:26:41.750Z,95356.56
2022-10-05T22:29:09.655Z,95363.78
2022-10-05T22:31:36.902Z,95364.50
2022-10-05T22:34:03.724Z,95357.94
2022-10-05T22:36:30.417Z,95350.50
2022-10-05T22:38:57.049Z,95347.75
2022-10-05T22:41:23.642Z,95354.69
2022-10-05T22:43:51.310Z,95355.84
2022-10-05T22:46:18.401Z,95343.16
2022-10-05T22:48:45.114Z,95350.53
2022-10-05T22:51:13.833Z,95349.31
2022-10-05T22:53:40.506Z,95349.13
2022-10-05T22:56:12.578Z,95350.22
2022-10-05T22:58:39.992Z,95347.59
2022-10-05T23:01:09.667Z,95346.00
2022-10-05T23:03:36.509Z,95341.97
2022-10-05T23:06:09.079Z,95342.41
2022-10-05T23:08:37.655Z,95346.88
2022-10-05T23:11:08.872Z,95351.06
2022-10-05T23:13:35.821Z,95349.78
2022-10-05T23:16:10.021Z,95339.91
2022-10-05T23:18:37.166Z,95343.09
2022-10-05T23:21:05.805Z,95350.09
2022-10-05T23:23:32.409Z,95347.94
2022-10-05T23:25:59.943Z,95352.13
2022-10-05T23:28:28.000Z,95355.47
2022-10-05T23:31:02.597Z,95360.38
2022-10-05T23:33:29.576Z,95363.72
2022-10-05T23:36:12.805Z,95360.50
2022-10-05T23:38:39.604Z,95362.13
2022-10-05T23:41:07.555Z,95360.25
2022-10-05T23:43:34.680Z,95363.63
2022-10-05T23:46:04.780Z,95357.47
2022-10-05T23:48:32.311Z,95355.47
2022-10-05T23:50:59.877Z,95352.94
2022-10-05T23:53:26.664Z,95356.19
2022-10-05T23:55:55.573Z,95347.47
2022-10-05T23:58:22.897Z,95352.53
